Time;durP1;ratioP1;P1;durP2;ratioP2;P2;SDS_P1;SDS_P2;PMS_P1;PMS_P2;Temp;Humidity;BMP_temperature;BMP_pressure;BME280_temperature;BME280_humidity;BME280_pressure;Samples;Min_cycle;Max_cycle;Signal;HPM_P1;HPM_P2
2023/10/22 00:01:54;;;;;;;4.60;1.25;;;13.00;99.90;;;;;;5038149;28;20052;-85
2023/10/22 00:04:20;;;;;;;2.88;1.10;;;13.00;99.90;;;;;;5055961;28;20083;-85
2023/10/22 00:06:47;;;;;;;5.18;1.33;;;13.00;99.90;;;;;;5037564;28;20059;-84
2023/10/22 00:09:13;;;;;;;3.45;1.05;;;13.10;99.90;;;;;;5055880;28;20508;-83
2023/10/22 00:11:38;;;;;;;3.17;1.10;;;13.20;99.90;;;;;;5055836;28;20080;-86
2023/10/22 00:14:04;;;;;;;5.00;1.13;;;13.20;99.90;;;;;;5055543;28;20040;-85
2023/10/22 00:16:30;;;;;;;2.63;0.93;;;13.20;99.90;;;;;;5055699;28;20111;-85
2023/10/22 00:18:56;;;;;;;4.70;0.93;;;13.20;99.90;;;;;;5054053;28;20055;-84
2023/10/22 00:21:21;;;;;;;2.35;0.88;;;13.20;99.90;;;;;;5051796;28;20061;-83
2023/10/22 00:23:47;;;;;;;8.07;1.08;;;13.20;99.90;;;;;;5052433;28;20045;-83
2023/10/22 00:26:14;;;;;;;4.22;0.90;;;13.20;99.90;;;;;;5052762;28;20049;-83
2023/10/22 00:28:42;;;;;;;6.03;2.47;;;13.30;99.90;;;;;;5052676;28;20388;-85
2023/10/22 00:31:08;;;;;;;2.10;0.95;;;13.30;99.90;;;;;;5034042;28;20131;-83
2023/10/22 00:33:34;;;;;;;3.58;1.00;;;13.30;99.90;;;;;;5052587;28;20079;-84
2023/10/22 00:35:59;;;;;;;5.60;1.50;;;13.30;99.90;;;;;;5034541;28;20059;-83
2023/10/22 00:38:26;;;;;;;1.63;0.90;;;13.30;99.90;;;;;;5052053;28;20048;-87
2023/10/22 00:40:52;;;;;;;2.83;0.93;;;13.30;99.90;;;;;;5052373;28;20053;-85
2023/10/22 00:43:18;;;;;;;3.55;1.10;;;13.30;99.90;;;;;;5052397;28;20481;-85
2023/10/22 00:45:45;;;;;;;3.92;1.25;;;13.40;99.90;;;;;;5034158;28;20045;-85
2023/10/22 00:48:11;;;;;;;4.85;1.10;;;13.30;99.90;;;;;;5051975;28;20061;-85
2023/10/22 00:50:40;;;;;;;2.88;1.33;;;13.30;99.90;;;;;;5052387;28;20179;-83
2023/10/22 00:53:08;;;;;;;4.13;1.10;;;13.40;99.90;;;;;;5052174;28;20048;-83
2023/10/22 00:55:39;;;;;;;4.28;1.27;;;13.40;99.90;;;;;;5052492;28;20404;-84
2023/10/22 00:58:05;;;;;;;2.58;0.90;;;13.40;99.90;;;;;;5051824;28;20055;-87
2023/10/22 01:00:33;;;;;;;2.75;1.23;;;13.30;99.90;;;;;;5052253;28;20049;-84
2023/10/22 01:03:02;;;;;;;3.63;1.05;;;13.30;99.90;;;;;;5051769;28;20554;-86
2023/10/22 01:05:29;;;;;;;4.63;1.00;;;13.30;99.90;;;;;;5052130;28;20056;-87
2023/10/22 01:07:56;;;;;;;2.60;0.90;;;13.30;99.90;;;;;;5034232;28;20053;-88
2023/10/22 01:10:21;;;;;;;4.85;1.58;;;13.30;99.90;;;;;;5034423;28;20048;-84
2023/10/22 01:12:47;;;;;;;3.33;0.95;;;13.30;99.90;;;;;;5051866;28;20056;-84
2023/10/22 01:15:13;;;;;;;6.63;1.08;;;13.30;99.90;;;;;;5052285;28;20041;-83
2023/10/22 01:17:38;;;;;;;3.28;0.95;;;13.30;99.90;;;;;;5052042;28;20094;-85
2023/10/22 01:20:05;;;;;;;5.13;1.30;;;13.30;99.90;;;;;;5045060;28;20575;-88
2023/10/22 01:22:33;;;;;;;3.22;1.15;;;13.30;99.90;;;;;;5033929;28;20076;-84
2023/10/22 01:24:59;;;;;;;2.03;0.93;;;13.20;99.90;;;;;;5033791;28;20441;-88
2023/10/22 01:27:24;;;;;;;4.55;1.02;;;13.20;99.90;;;;;;5033140;28;20142;-87
2023/10/22 01:29:50;;;;;;;2.67;1.17;;;13.20;99.90;;;;;;5051750;28;20495;-86
2023/10/22 01:32:16;;;;;;;2.25;1.20;;;13.20;99.90;;;;;;5032626;28;20141;-85
2023/10/22 01:34:41;;;;;;;4.88;1.17;;;13.20;99.90;;;;;;5051308;28;20049;-86
2023/10/22 01:37:07;;;;;;;2.30;1.15;;;13.20;99.90;;;;;;5051164;28;20044;-85
2023/10/22 01:39:33;;;;;;;3.30;0.95;;;13.00;99.90;;;;;;5051507;28;20049;-83
2023/10/22 01:41:59;;;;;;;4.93;1.10;;;12.90;99.90;;;;;;5051104;28;20124;-85
2023/10/22 01:44:24;;;;;;;5.00;0.80;;;12.80;99.90;;;;;;5051450;28;20049;-83
2023/10/22 01:46:50;;;;;;;4.63;1.05;;;12.80;99.90;;;;;;5050821;28;20135;-85
2023/10/22 01:49:16;;;;;;;5.35;1.20;;;12.70;99.90;;;;;;5051925;28;20049;-85
2023/10/22 01:51:41;;;;;;;3.78;1.10;;;12.60;99.90;;;;;;5051398;28;20126;-83
2023/10/22 01:54:07;;;;;;;7.38;1.20;;;12.60;99.90;;;;;;5051108;28;20049;-83
2023/10/22 01:56:33;;;;;;;5.07;1.00;;;12.50;99.90;;;;;;5057014;28;20172;-78
2023/10/22 01:58:58;;;;;;;4.00;1.05;;;12.50;99.90;;;;;;5053595;28;20118;-79
2023/10/22 02:01:26;;;;;;;2.90;1.25;;;12.30;99.90;;;;;;5050134;28;20040;-78
2023/10/22 02:03:52;;;;;;;8.73;1.75;;;12.40;99.90;;;;;;5032430;28;20060;-77
2023/10/22 02:06:17;;;;;;;3.45;1.15;;;12.30;99.90;;;;;;5050385;28;20055;-77
2023/10/22 02:08:46;;;;;;;6.78;1.15;;;12.20;99.90;;;;;;5050071;28;20049;-78
2023/10/22 02:11:11;;;;;;;1.40;1.00;;;12.30;99.90;;;;;;5031895;28;20088;-77
2023/10/22 02:13:37;;;;;;;5.07;2.33;;;12.20;99.90;;;;;;5049593;28;20080;-76
2023/10/22 02:16:03;;;;;;;5.88;1.40;;;12.20;99.90;;;;;;5031714;28;20052;-76
2023/10/22 02:18:29;;;;;;;4.80;1.50;;;12.20;99.90;;;;;;5049762;28;20049;-79
2023/10/22 02:20:59;;;;;;;3.10;1.10;;;12.20;99.90;;;;;;5049562;28;20077;-77
2023/10/22 02:23:25;;;;;;;1.95;1.30;;;12.20;99.90;;;;;;5049741;28;20048;-78
2023/10/22 02:25:51;;;;;;;6.03;1.52;;;12.10;99.90;;;;;;5049487;28;20053;-77
2023/10/22 02:28:17;;;;;;;3.53;1.00;;;12.20;99.90;;;;;;5049211;28;20037;-76
2023/10/22 02:30:44;;;;;;;3.03;1.77;;;12.20;99.90;;;;;;5049464;28;20049;-76
2023/10/22 02:33:10;;;;;;;7.13;1.40;;;12.10;99.90;;;;;;5015271;28;20114;-78
2023/10/22 02:35:44;;;;;;;5.00;1.63;;;12.10;99.90;;;;;;5049736;28;20040;-77
2023/10/22 02:38:15;;;;;;;7.93;2.08;;;12.10;99.90;;;;;;5049686;28;20509;-77
2023/10/22 02:40:41;;;;;;;4.72;1.17;;;12.20;99.90;;;;;;5049319;28;20067;-76
2023/10/22 02:43:07;;;;;;;3.63;1.30;;;12.10;99.90;;;;;;5048582;28;20489;-76
2023/10/22 02:45:33;;;;;;;3.65;1.02;;;12.10;99.90;;;;;;5049174;28;20060;-76
2023/10/22 02:47:59;;;;;;;2.72;1.20;;;12.20;99.90;;;;;;5049400;28;20041;-77
2023/10/22 02:50:26;;;;;;;6.22;1.48;;;12.20;99.90;;;;;;5049124;28;20135;-78
2023/10/22 02:52:52;;;;;;;3.83;1.33;;;12.20;99.90;;;;;;5031540;28;20527;-77
2023/10/22 02:55:18;;;;;;;6.63;2.20;;;12.20;99.90;;;;;;5049006;28;20049;-78
2023/10/22 02:57:45;;;;;;;2.28;1.10;;;12.20;99.90;;;;;;5049033;28;20150;-78
2023/10/22 03:00:11;;;;;;;3.63;1.02;;;12.20;99.90;;;;;;5048981;28;20497;-77
2023/10/22 03:02:40;;;;;;;4.60;1.23;;;12.20;99.90;;;;;;5048992;28;20084;-77
2023/10/22 03:05:06;;;;;;;3.35;1.00;;;12.20;99.90;;;;;;5048791;28;20088;-78
2023/10/22 03:07:32;;;;;;;1.60;1.00;;;12.30;99.90;;;;;;5048707;28;20056;-78
2023/10/22 03:09:58;;;;;;;3.45;1.25;;;12.30;99.90;;;;;;5048873;28;20064;-79
2023/10/22 03:12:24;;;;;;;2.85;1.05;;;12.30;99.90;;;;;;5049007;28;20049;-78
2023/10/22 03:14:51;;;;;;;1.95;1.00;;;12.30;99.90;;;;;;5049240;28;20179;-78
2023/10/22 03:17:18;;;;;;;3.67;1.23;;;12.30;99.90;;;;;;5031037;28;20060;-77
2023/10/22 03:19:43;;;;;;;2.10;1.02;;;12.30;99.90;;;;;;5031017;28;20388;-79
2023/10/22 03:22:09;;;;;;;2.72;1.30;;;12.30;99.90;;;;;;5049012;28;20049;-78
2023/10/22 03:24:35;;;;;;;1.58;1.05;;;12.30;99.90;;;;;;5049089;28;20057;-78
2023/10/22 03:27:04;;;;;;;3.47;1.35;;;12.30;99.90;;;;;;5031037;28;20093;-78
2023/10/22 03:29:30;;;;;;;4.97;1.25;;;12.30;99.90;;;;;;5048849;28;20049;-78
2023/10/22 03:31:56;;;;;;;2.28;1.40;;;12.30;99.90;;;;;;5048976;28;20420;-77
2023/10/22 03:34:22;;;;;;;3.17;1.10;;;12.30;99.90;;;;;;5048682;28;20057;-77
2023/10/22 03:36:48;;;;;;;2.42;1.25;;;12.30;99.90;;;;;;5048940;28;20049;-79
2023/10/22 03:39:14;;;;;;;5.15;2.13;;;12.30;99.90;;;;;;5048499;28;20128;-78
2023/10/22 03:41:40;;;;;;;1.75;1.05;;;12.30;99.90;;;;;;5048541;28;20139;-77
2023/10/22 03:44:06;;;;;;;2.33;1.13;;;12.30;99.90;;;;;;5048813;28;20163;-77
2023/10/22 03:46:32;;;;;;;5.47;1.00;;;12.20;99.90;;;;;;5030531;28;20648;-76
2023/10/22 03:48:58;;;;;;;3.40;1.35;;;12.20;99.90;;;;;;5048457;28;20132;-77
2023/10/22 03:51:24;;;;;;;3.30;1.40;;;12.20;99.90;;;;;;5030675;28;20144;-76
2023/10/22 03:53:53;;;;;;;4.78;1.20;;;12.30;99.90;;;;;;5049283;28;20107;-75
2023/10/22 03:56:20;;;;;;;3.90;1.52;;;12.20;99.90;;;;;;5052601;28;20052;-75
2023/10/22 03:58:46;;;;;;;2.90;1.30;;;12.30;99.90;;;;;;5034132;28;20060;-76
2023/10/22 04:01:12;;;;;;;1.40;1.10;;;12.20;99.90;;;;;;5052483;28;20136;-75
2023/10/22 04:03:37;;;;;;;4.85;1.40;;;12.20;99.90;;;;;;5053073;28;20136;-76
2023/10/22 04:06:03;;;;;;;3.08;1.33;;;12.20;99.90;;;;;;5052135;28;20497;-76
2023/10/22 04:08:29;;;;;;;3.05;1.50;;;12.20;99.90;;;;;;5016501;28;20045;-75
2023/10/22 04:10:55;;;;;;;1.42;1.33;;;12.20;99.90;;;;;;5052173;28;20052;-76
2023/10/22 04:13:22;;;;;;;3.85;1.40;;;12.20;99.90;;;;;;5052177;28;20045;-76
2023/10/22 04:15:48;;;;;;;1.95;1.45;;;12.20;99.90;;;;;;5051908;28;20074;-74
2023/10/22 04:18:15;;;;;;;1.83;1.20;;;12.20;99.90;;;;;;5051959;28;20052;-74
2023/10/22 04:20:41;;;;;;;2.47;1.42;;;12.20;99.90;;;;;;5051666;28;20056;-75
2023/10/22 04:23:10;;;;;;;3.38;1.30;;;12.20;99.90;;;;;;5051524;28;20122;-74
2023/10/22 04:25:42;;;;;;;2.50;1.60;;;12.20;99.90;;;;;;5051809;28;20049;-74
2023/10/22 04:28:08;;;;;;;;;;;12.20;99.90;;;;;;5034039;28;20052;-75
2023/10/22 04:30:41;;;;;;;3.22;1.55;;;12.20;99.90;;;;;;5051648;28;19928;-74
2023/10/22 04:33:07;;;;;;;;;;;12.20;99.90;;;;;;5052013;28;20052;-76
2023/10/22 04:35:33;;;;;;;2.50;1.50;;;12.20;99.90;;;;;;5051505;28;19967;-75
2023/10/22 04:38:00;;;;;;;2.03;1.85;;;12.20;99.90;;;;;;5051419;28;20051;-76
2023/10/22 04:40:30;;;;;;;4.03;1.42;;;12.20;99.90;;;;;;5051532;28;20374;-75
2023/10/22 04:42:59;;;;;;;2.75;1.30;;;12.20;99.90;;;;;;5034981;28;20053;-75
2023/10/22 04:45:25;;;;;;;1.40;1.30;;;12.20;99.90;;;;;;5051376;28;20045;-75
2023/10/22 04:47:51;;;;;;;1.67;1.20;;;12.20;99.90;;;;;;5051684;28;20049;-75
2023/10/22 04:50:17;;;;;;;2.47;1.48;;;12.10;99.90;;;;;;5054019;28;20060;-75
2023/10/22 04:52:43;;;;;;;1.30;1.23;;;12.20;99.90;;;;;;5036521;28;20063;-77
2023/10/22 04:55:12;;;;;;;4.35;1.50;;;12.20;99.90;;;;;;5044285;28;20048;-77
2023/10/22 04:57:38;;;;;;;1.70;1.20;;;12.20;99.90;;;;;;5055862;28;20412;-78
2023/10/22 05:00:09;;;;;;;2.17;1.42;;;12.20;99.90;;;;;;5051261;28;20234;-76
2023/10/22 05:02:36;;;;;;;2.10;1.40;;;12.20;99.90;;;;;;5033150;28;20064;-77
2023/10/22 05:05:02;;;;;;;3.88;1.63;;;12.20;99.90;;;;;;5050595;28;20052;-76
2023/10/22 05:07:28;;;;;;;1.77;1.15;;;12.20;99.90;;;;;;5050927;28;20112;-76
2023/10/22 05:09:54;;;;;;;2.55;1.38;;;12.20;99.90;;;;;;5050891;28;20588;-76
2023/10/22 05:12:19;;;;;;;1.60;1.50;;;12.20;99.90;;;;;;5050906;28;20088;-76
2023/10/22 05:14:45;;;;;;;1.60;1.50;;;12.20;99.90;;;;;;5050613;28;20054;-75
2023/10/22 05:17:11;;;;;;;3.47;1.70;;;12.20;99.90;;;;;;5050647;28;20045;-76
2023/10/22 05:19:36;;;;;;;1.48;1.38;;;12.20;99.90;;;;;;5050463;28;20110;-76
2023/10/22 05:22:06;;;;;;;2.22;1.60;;;12.20;99.90;;;;;;5050820;28;20099;-76
2023/10/22 05:24:32;;;;;;;1.83;1.30;;;12.20;99.90;;;;;;5050586;28;20132;-76
2023/10/22 05:26:57;;;;;;;1.52;1.42;;;12.20;99.90;;;;;;5050498;28;20088;-73
2023/10/22 05:29:23;;;;;;;1.50;1.40;;;12.20;99.90;;;;;;5050491;28;20076;-75
2023/10/22 05:31:49;;;;;;;1.55;1.08;;;12.20;99.90;;;;;;5050229;28;20049;-75
2023/10/22 05:34:15;;;;;;;1.23;1.15;;;12.20;99.90;;;;;;5032300;28;20500;-70
2023/10/22 05:36:41;;;;;;;1.50;1.40;;;12.20;99.90;;;;;;5050562;28;20045;-71
2023/10/22 05:39:07;;;;;;;1.25;1.08;;;12.20;99.90;;;;;;5050144;28;20045;-69
2023/10/22 05:41:33;;;;;;;1.20;1.10;;;12.20;99.90;;;;;;5050342;28;20063;-69
2023/10/22 05:44:02;;;;;;;3.22;0.93;;;12.20;99.90;;;;;;5050091;28;20396;-71
2023/10/22 05:46:34;;;;;;;1.10;1.10;;;12.20;99.90;;;;;;5035981;28;20275;-70
2023/10/22 05:49:00;;;;;;;1.40;1.20;;;12.20;99.90;;;;;;5029893;28;20054;-70
2023/10/22 05:51:26;;;;;;;0.80;0.80;;;12.20;99.90;;;;;;5030401;28;20045;-72
2023/10/22 05:53:52;;;;;;;1.00;1.00;;;12.30;99.90;;;;;;4995941;28;20168;-70
2023/10/22 05:56:18;;;;;;;1.50;1.40;;;12.30;99.90;;;;;;5030026;28;20192;-69
2023/10/22 05:58:43;;;;;;;1.10;1.10;;;12.30;99.90;;;;;;5012254;28;20569;-69
2023/10/22 06:01:09;;;;;;;1.90;1.08;;;12.30;99.90;;;;;;5030273;28;20052;-70
2023/10/22 06:03:36;;;;;;;1.40;1.08;;;12.30;99.90;;;;;;5030145;28;20095;-72
2023/10/22 06:06:02;;;;;;;0.95;0.95;;;12.30;99.90;;;;;;5030424;28;20110;-73
2023/10/22 06:08:28;;;;;;;1.85;1.10;;;12.30;99.90;;;;;;5012099;28;20057;-76
2023/10/22 06:10:54;;;;;;;1.25;1.00;;;12.30;99.90;;;;;;5029814;28;20489;-73
2023/10/22 06:13:20;;;;;;;2.28;1.10;;;12.30;99.90;;;;;;5029888;28;20049;-75
2023/10/22 06:15:45;;;;;;;1.40;0.98;;;12.30;99.90;;;;;;5029762;28;20045;-75
2023/10/22 06:18:11;;;;;;;3.80;1.35;;;12.30;99.90;;;;;;4994519;28;20060;-75
2023/10/22 06:20:38;;;;;;;2.53;1.10;;;12.30;99.90;;;;;;5029749;28;20460;-74
2023/10/22 06:23:05;;;;;;;3.25;1.58;;;12.20;99.90;;;;;;5029723;28;20053;-75
2023/10/22 06:25:32;;;;;;;3.38;1.50;;;12.20;99.90;;;;;;5029653;28;20527;-74
2023/10/22 06:27:59;;;;;;;3.38;2.00;;;12.20;99.90;;;;;;5012046;28;20416;-77
2023/10/22 06:30:26;;;;;;;10.48;2.38;;;12.20;99.90;;;;;;5029474;28;20140;-75
2023/10/22 06:32:53;;;;;;;4.13;1.95;;;12.20;99.90;;;;;;5028314;28;20075;-78
2023/10/22 06:35:19;;;;;;;5.65;2.65;;;12.20;99.90;;;;;;5029478;28;20517;-80
2023/10/22 06:37:50;;;;;;;4.55;2.47;;;12.20;99.90;;;;;;5028569;28;20049;-84
2023/10/22 06:40:17;;;;;;;4.75;2.88;;;12.20;99.90;;;;;;5030026;28;20155;-81
2023/10/22 06:42:43;;;;;;;6.18;2.80;;;12.20;99.90;;;;;;5029693;28;20048;-81
2023/10/22 06:45:09;;;;;;;4.40;2.50;;;12.20;99.90;;;;;;5032006;28;20053;-79
2023/10/22 06:47:36;;;;;;;5.07;2.60;;;12.20;99.90;;;;;;5049343;28;20048;-81
2023/10/22 06:50:05;;;;;;;3.13;2.00;;;12.20;99.90;;;;;;5049760;28;20061;-79
2023/10/22 06:52:32;;;;;;;4.80;2.13;;;12.10;99.90;;;;;;5049792;28;20139;-81
2023/10/22 06:54:57;;;;;;;4.65;2.20;;;12.10;99.90;;;;;;5043561;28;20050;-82
2023/10/22 06:57:23;;;;;;;6.63;2.75;;;12.10;99.90;;;;;;5038507;28;20110;-82
2023/10/22 06:59:50;;;;;;;4.85;2.25;;;12.10;99.90;;;;;;5043153;28;20127;-84
2023/10/22 07:02:16;;;;;;;5.10;2.35;;;12.10;99.90;;;;;;5026761;28;20435;-82
2023/10/22 07:04:42;;;;;;;5.32;2.15;;;12.10;99.90;;;;;;5032014;28;20052;-82
2023/10/22 07:07:08;;;;;;;10.07;2.08;;;12.10;99.90;;;;;;5050484;28;20049;-84
2023/10/22 07:09:34;;;;;;;7.60;2.10;;;12.10;99.90;;;;;;5070044;28;20054;-82
2023/10/22 07:11:59;;;;;;;5.95;1.92;;;12.10;99.90;;;;;;5051466;28;20052;-84
2023/10/22 07:14:26;;;;;;;2.70;2.40;;;12.10;99.90;;;;;;5047733;28;20400;-84
2023/10/22 07:16:52;;;;;;;5.78;2.65;;;12.10;99.90;;;;;;5046080;28;20766;-83
2023/10/22 07:19:17;;;;;;;8.18;2.83;;;12.10;99.90;;;;;;5025585;28;20107;-82
2023/10/22 07:21:44;;;;;;;5.20;2.70;;;12.10;99.90;;;;;;5031499;28;20420;-84
2023/10/22 07:24:09;;;;;;;8.25;2.95;;;12.10;99.90;;;;;;5046091;28;20392;-84
2023/10/22 07:26:35;;;;;;;5.60;2.45;;;12.10;99.90;;;;;;5022183;28;20060;-87
2023/10/22 07:29:01;;;;;;;6.05;3.60;;;12.10;99.90;;;;;;5043617;28;20080;-83
2023/10/22 07:31:26;;;;;;;6.97;3.38;;;12.10;99.90;;;;;;5044678;28;20465;-79
2023/10/22 07:33:52;;;;;;;7.00;3.13;;;12.10;99.90;;;;;;5053680;28;20203;-83
2023/10/22 07:36:18;;;;;;;4.43;2.78;;;12.10;99.90;;;;;;5036754;28;20052;-87
2023/10/22 07:38:43;;;;;;;5.63;2.83;;;12.10;99.90;;;;;;5054979;28;20041;-88
2023/10/22 07:41:16;;;;;;;7.65;4.35;;;12.10;99.90;;;;;;5056060;28;20041;-84
2023/10/22 07:43:42;;;;;;;4.85;4.05;;;12.10;99.90;;;;;;5063304;28;20064;-86
2023/10/22 07:46:10;;;;;;;7.80;3.35;;;12.10;99.90;;;;;;5060357;28;20045;-86
2023/10/22 07:48:36;;;;;;;4.95;2.88;;;12.20;99.90;;;;;;5058761;28;20111;-85
2023/10/22 07:51:11;;;;;;;4.63;3.42;;;12.20;99.90;;;;;;5053662;28;20072;-83
2023/10/22 07:53:37;;;;;;;9.57;3.42;;;12.20;99.90;;;;;;5053659;28;20052;-83
2023/10/22 07:56:05;;;;;;;11.02;4.00;;;12.20;99.90;;;;;;5053747;28;20045;-83
2023/10/22 07:58:31;;;;;;;10.18;3.60;;;12.20;99.90;;;;;;5053460;28;20417;-82
2023/10/22 08:00:57;;;;;;;11.68;4.65;;;12.20;99.90;;;;;;5053588;28;20053;-86
2023/10/22 08:03:22;;;;;;;8.65;3.75;;;12.20;99.90;;;;;;5053882;28;20048;-87
2023/10/22 08:05:48;;;;;;;4.97;3.90;;;12.20;99.90;;;;;;5054032;28;20033;-85
2023/10/22 08:08:14;;;;;;;7.03;4.20;;;12.20;99.90;;;;;;5053741;28;20037;-87
2023/10/22 08:10:39;;;;;;;6.28;4.00;;;12.30;99.90;;;;;;5053796;28;20045;-85
2023/10/22 08:13:05;;;;;;;7.45;3.92;;;12.30;99.90;;;;;;5035626;28;20056;-85
2023/10/22 08:15:31;;;;;;;10.27;4.22;;;12.30;99.90;;;;;;5053229;28;20068;-84
2023/10/22 08:17:56;;;;;;;5.97;4.38;;;12.30;99.90;;;;;;5035163;28;20142;-85
2023/10/22 08:20:22;;;;;;;8.70;4.22;;;12.30;99.90;;;;;;5035624;28;20053;-86
2023/10/22 08:22:48;;;;;;;7.30;4.45;;;12.30;99.90;;;;;;5053476;28;20049;-86
2023/10/22 08:25:13;;;;;;;9.38;4.95;;;12.40;99.90;;;;;;5053925;28;20087;-87
2023/10/22 08:27:39;;;;;;;6.57;4.85;;;12.40;99.90;;;;;;5052470;28;20041;-89
2023/10/22 08:30:05;;;;;;;7.50;4.60;;;12.40;99.90;;;;;;5038371;28;20040;-88
2023/10/22 08:32:34;;;;;;;8.52;4.53;;;12.40;99.90;;;;;;5045685;28;20389;-87
2023/10/22 08:35:02;;;;;;;10.48;5.50;;;12.50;99.90;;;;;;5044098;28;20111;-89
2023/10/22 08:37:27;;;;;;;8.55;4.10;;;12.50;99.90;;;;;;5041815;28;20124;-89
2023/10/22 08:39:54;;;;;;;7.88;3.83;;;12.50;99.90;;;;;;5041889;28;20127;-87
2023/10/22 08:42:23;;;;;;;5.57;4.07;;;12.50;99.90;;;;;;5022127;28;20040;-86
2023/10/22 08:44:49;;;;;;;7.65;4.55;;;12.50;99.90;;;;;;5041080;28;20496;-86
2023/10/22 08:47:16;;;;;;;6.95;3.80;;;12.60;99.90;;;;;;5039848;28;20050;-91
2023/10/22 08:49:42;;;;;;;9.45;4.10;;;12.60;99.90;;;;;;5037130;28;20049;-88
2023/10/22 08:52:11;;;;;;;7.82;4.57;;;12.50;99.90;;;;;;5042212;28;20060;-88
2023/10/22 08:54:37;;;;;;;8.57;4.50;;;12.60;99.90;;;;;;5039218;28;20053;-88
2023/10/22 08:57:03;;;;;;;8.00;4.25;;;12.60;99.90;;;;;;5044198;28;20048;-90
2023/10/22 08:59:37;;;;;;;14.82;4.50;;;12.60;99.90;;;;;;5044122;28;20048;-87
2023/10/22 09:02:08;;;;;;;13.13;4.70;;;12.60;99.90;;;;;;5037200;28;20092;-89
2023/10/22 09:04:34;;;;;;;8.10;4.07;;;12.60;99.90;;;;;;5042022;28;20060;-89
2023/10/22 09:07:00;;;;;;;7.50;4.10;;;12.60;99.90;;;;;;5033804;28;20048;-86
2023/10/22 09:09:32;;;;;;;6.10;4.10;;;12.60;99.90;;;;;;5045306;28;20053;-89
2023/10/22 09:11:58;;;;;;;11.48;4.32;;;12.60;99.90;;;;;;5022636;28;20056;-88
2023/10/22 09:14:24;;;;;;;7.53;3.65;;;12.70;99.90;;;;;;5024751;28;20072;-88
2023/10/22 09:16:50;;;;;;;5.82;3.33;;;12.70;99.90;;;;;;5026832;28;20167;-87
2023/10/22 09:19:39;;;;;;;8.73;3.58;;;12.70;99.90;;;;;;5020045;28;20071;-87
2023/10/22 09:22:06;;;;;;;8.02;3.85;;;12.70;99.90;;;;;;5034612;28;20049;-88
2023/10/22 09:24:47;;;;;;;6.75;3.55;;;12.80;99.90;;;;;;5039214;28;20093;-88
2023/10/22 09:27:23;;;;;;;6.13;3.60;;;12.80;99.90;;;;;;5021056;28;20120;-88
2023/10/22 09:29:49;;;;;;;7.82;3.83;;;12.90;99.90;;;;;;5041208;28;20378;-90
2023/10/22 09:32:15;;;;;;;4.07;3.60;;;12.90;99.90;;;;;;5044735;28;20116;-87
2023/10/22 09:34:41;;;;;;;5.57;3.90;;;13.00;99.90;;;;;;5032655;28;20049;-82
2023/10/22 09:37:07;;;;;;;5.22;3.45;;;13.10;99.90;;;;;;5031614;28;20049;-91
2023/10/22 09:39:37;;;;;;;6.53;4.05;;;13.00;99.90;;;;;;5032975;28;20127;-91
2023/10/22 09:42:04;;;;;;;4.75;3.50;;;13.10;99.90;;;;;;5014384;28;20053;-91
2023/10/22 09:44:32;;;;;;;7.88;3.90;;;13.10;99.90;;;;;;4997920;28;20592;-90
2023/10/22 09:47:03;;;;;;;6.90;4.43;;;13.20;99.90;;;;;;5065501;28;20094;-88
2023/10/22 09:49:33;;;;;;;7.35;3.83;;;13.10;99.90;;;;;;5072846;28;20052;-90
2023/10/22 09:52:00;;;;;;;8.00;3.95;;;13.20;99.90;;;;;;5064072;28;20052;-89
2023/10/22 09:54:37;;;;;;;8.82;4.63;;;13.20;99.90;;;;;;5058014;28;20053;-90
2023/10/22 09:57:15;;;;;;;5.80;4.53;;;13.20;99.90;;;;;;5042118;28;20060;-89
2023/10/22 09:59:42;;;;;;;6.97;4.28;;;13.20;99.90;;;;;;5059213;28;20063;-89
2023/10/22 10:02:15;;;;;;;6.82;3.88;;;13.20;99.90;;;;;;5051724;28;20516;-89
2023/10/22 10:04:45;;;;;;;5.95;4.05;;;13.20;99.90;;;;;;5051880;28;20057;-88
2023/10/22 10:07:11;;;;;;;6.60;4.03;;;13.20;99.90;;;;;;5051883;28;20083;-90
2023/10/22 10:09:37;;;;;;;7.78;4.07;;;13.20;99.90;;;;;;5051716;28;20811;-90
2023/10/22 10:12:06;;;;;;;5.82;4.00;;;13.20;99.90;;;;;;5040665;28;20080;-91
2023/10/22 10:14:42;;;;;;;8.43;4.63;;;13.20;99.90;;;;;;5053683;28;20425;-91
2023/10/22 10:17:09;;;;;;;5.03;4.25;;;13.20;99.90;;;;;;5053358;28;20407;-87
2023/10/22 10:19:35;;;;;;;9.15;5.20;;;13.20;99.90;;;;;;5071210;28;20166;-86
2023/10/22 10:22:01;;;;;;;7.60;4.97;;;13.20;99.90;;;;;;5070239;28;20100;-88
2023/10/22 10:24:33;;;;;;;5.25;3.70;;;13.20;99.90;;;;;;5052624;28;20049;-88
2023/10/22 10:26:59;;;;;;;13.13;4.45;;;13.20;99.90;;;;;;5047925;28;20057;-90
2023/10/22 10:29:29;;;;;;;5.18;4.03;;;13.20;99.90;;;;;;5051389;28;20048;-84
2023/10/22 10:32:15;;;;;;;8.23;4.32;;;13.20;99.90;;;;;;5051520;28;20633;-88
2023/10/22 10:34:43;;;;;;;8.50;4.65;;;13.30;99.90;;;;;;5051526;28;20053;-90
2023/10/22 10:37:24;;;;;;;5.68;4.20;;;13.40;99.90;;;;;;5052157;28;20041;-88
2023/10/22 10:39:51;;;;;;;8.60;4.88;;;13.40;99.90;;;;;;5055475;28;20041;-91
2023/10/22 10:42:29;;;;;;;5.22;4.05;;;13.40;99.90;;;;;;5037762;28;20404;-93
2023/10/22 10:44:55;;;;;;;6.05;3.47;;;13.50;99.90;;;;;;5051059;28;20048;-89
2023/10/22 10:47:20;;;;;;;4.95;4.10;;;13.60;99.90;;;;;;5050978;28;20045;-90
2023/10/22 10:50:05;;;;;;;6.82;3.58;;;13.70;99.90;;;;;;5050653;28;20045;-84
2023/10/22 10:52:46;;;;;;;8.00;3.45;;;13.70;99.90;;;;;;5031515;28;20056;-83
2023/10/22 10:55:20;;;;;;;9.63;4.30;;;13.70;99.90;;;;;;5049612;28;20123;-81
2023/10/22 10:57:50;;;;;;;6.63;3.88;;;13.60;99.90;;;;;;5049253;28;20115;-83
2023/10/22 11:00:26;;;;;;;7.05;3.78;;;13.70;99.90;;;;;;5031443;28;20064;-83
2023/10/22 11:02:54;;;;;;;5.82;3.50;;;13.60;99.90;;;;;;5049163;28;20049;-83
2023/10/22 11:05:39;;;;;;;3.70;2.92;;;13.60;99.90;;;;;;5049341;28;20036;-83
2023/10/22 11:08:12;;;;;;;6.40;3.47;;;13.60;99.90;;;;;;5032034;28;20139;-87
2023/10/22 11:10:38;;;;;;;6.68;3.30;;;13.60;99.90;;;;;;5048742;28;20048;-83
2023/10/22 11:13:05;;;;;;;4.78;3.00;;;13.60;99.90;;;;;;5049720;28;20063;-87
2023/10/22 11:15:33;;;;;;;6.95;2.80;;;13.60;99.90;;;;;;5047842;28;20069;-83
2023/10/22 11:18:03;;;;;;;7.68;2.70;;;13.70;99.90;;;;;;5048676;28;20378;-87
2023/10/22 11:20:30;;;;;;;6.32;2.83;;;13.70;99.90;;;;;;5048411;28;20061;-89
2023/10/22 11:22:56;;;;;;;7.15;2.47;;;13.70;99.90;;;;;;5049754;28;20675;-83
2023/10/22 11:25:22;;;;;;;6.65;2.80;;;13.70;99.90;;;;;;5050109;28;20057;-90
2023/10/22 11:27:48;;;;;;;5.00;2.30;;;13.70;99.90;;;;;;5051580;28;20056;-91
2023/10/22 11:30:36;;;;;;;5.22;2.20;;;13.70;99.90;;;;;;5050878;28;20567;-90
2023/10/22 11:33:07;;;;;;;3.03;2.20;;;13.70;99.90;;;;;;5050565;28;20052;-90
2023/10/22 11:35:34;;;;;;;2.58;2.30;;;13.70;99.90;;;;;;5048834;28;20060;-89
2023/10/22 11:38:00;;;;;;;5.28;1.73;;;13.70;99.90;;;;;;5050191;28;20060;-90
2023/10/22 11:40:35;;;;;;;4.55;2.65;;;13.70;99.90;;;;;;5059218;28;20060;-89
2023/10/22 11:43:13;;;;;;;5.43;2.33;;;13.60;99.90;;;;;;5069902;28;20439;-87
2023/10/22 11:45:52;;;;;;;3.45;1.85;;;13.60;99.90;;;;;;5062305;28;20067;-93
2023/10/22 11:48:27;;;;;;;3.83;2.03;;;13.60;99.90;;;;;;5057503;28;20037;-90
2023/10/22 11:51:01;;;;;;;6.38;2.50;;;13.50;99.90;;;;;;5039290;28;20547;-91
2023/10/22 11:53:47;;;;;;;2.72;1.73;;;13.50;99.90;;;;;;5056892;28;20049;-86
2023/10/22 11:56:13;;;;;;;2.65;1.90;;;13.50;99.90;;;;;;5056249;28;20115;-84
2023/10/22 11:58:39;;;;;;;2.53;1.75;;;13.50;99.90;;;;;;5055343;28;20041;-85
2023/10/22 12:01:04;;;;;;;5.15;1.70;;;13.50;99.90;;;;;;5034906;28;20447;-84
2023/10/22 12:03:30;;;;;;;2.25;1.40;;;13.50;99.90;;;;;;5038482;28;20049;-84
2023/10/22 12:05:56;;;;;;;7.50;1.95;;;13.50;99.90;;;;;;5037749;28;20125;-82
2023/10/22 12:08:22;;;;;;;7.10;1.80;;;13.50;99.90;;;;;;5055238;28;20041;-83
2023/10/22 12:10:48;;;;;;;3.03;1.27;;;13.50;99.90;;;;;;5053900;28;20055;-86
2023/10/22 12:13:14;;;;;;;4.32;1.38;;;13.40;99.90;;;;;;5055468;28;20057;-84
2023/10/22 12:15:39;;;;;;;4.10;1.30;;;13.40;99.90;;;;;;5039880;28;20385;-83
2023/10/22 12:18:07;;;;;;;3.75;2.08;;;13.40;99.90;;;;;;5059221;28;20527;-83
2023/10/22 12:20:33;;;;;;;3.78;1.08;;;13.40;99.90;;;;;;5026109;28;20512;-77
2023/10/22 12:22:59;;;;;;;1.23;1.02;;;13.30;99.90;;;;;;5041378;28;20052;-85
2023/10/22 12:25:28;;;;;;;1.77;0.70;;;13.40;99.90;;;;;;5041434;28;20056;-83
2023/10/22 12:27:54;;;;;;;4.57;1.15;;;13.30;99.90;;;;;;5059329;28;20403;-83
2023/10/22 12:30:20;;;;;;;1.98;1.00;;;13.40;99.90;;;;;;5059450;28;20053;-81
2023/10/22 12:32:46;;;;;;;6.30;1.00;;;13.40;99.90;;;;;;5059189;28;20504;-83
2023/10/22 12:35:12;;;;;;;1.30;0.90;;;13.40;99.90;;;;;;5059785;28;20060;-83
2023/10/22 12:37:38;;;;;;;1.02;0.93;;;13.30;99.90;;;;;;5060181;28;20045;-83
2023/10/22 12:40:05;;;;;;;2.72;0.80;;;13.40;99.90;;;;;;5025467;28;20586;-84
2023/10/22 12:42:31;;;;;;;4.85;0.85;;;13.30;99.90;;;;;;5060105;28;20044;-83
2023/10/22 12:44:57;;;;;;;1.80;0.90;;;13.30;99.90;;;;;;5041484;28;20586;-84
2023/10/22 12:47:22;;;;;;;2.08;1.00;;;13.30;99.90;;;;;;5040354;28;20088;-86
2023/10/22 12:49:48;;;;;;;2.55;0.90;;;13.30;99.90;;;;;;5024558;28;20056;-87